createdAt,value
2019-03-28T00:00:53.504Z,8.10
2019-03-28T00:04:57.099Z,8.10
2019-03-28T00:09:00.723Z,8.10
2019-03-28T00:13:04.703Z,8.00
2019-03-28T00:17:08.703Z,8.10
2019-03-28T00:21:12.364Z,8.00
2019-03-28T00:25:23.431Z,8.00
2019-03-28T00:29:27.021Z,8.00
2019-03-28T00:33:30.603Z,8.00
2019-03-28T00:37:34.217Z,8.00
2019-03-28T00:41:37.784Z,8.00
2019-03-28T00:45:44.419Z,8.00
2019-03-28T00:49:46.640Z,8.00
2019-03-28T00:53:50.229Z,8.00
2019-03-28T00:57:53.805Z,8.00
2019-03-28T01:01:57.393Z,8.00
2019-03-28T01:06:00.989Z,8.00
2019-03-28T01:10:06.046Z,7.90
2019-03-28T01:14:09.636Z,7.90
2019-03-28T01:18:13.229Z,7.90
2019-03-28T01:22:16.959Z,7.90
2019-03-28T01:26:20.539Z,7.90
2019-03-28T01:30:24.148Z,7.80
2019-03-28T01:34:27.735Z,7.80
2019-03-28T01:38:31.317Z,7.80
2019-03-28T01:42:34.898Z,7.80
2019-03-28T01:46:38.485Z,7.80
2019-03-28T01:50:42.161Z,7.70
2019-03-28T01:54:45.769Z,7.70
2019-03-28T01:58:49.351Z,7.70
2019-03-28T02:02:52.946Z,7.70
2019-03-28T02:06:56.535Z,7.70
2019-03-28T02:11:00.124Z,7.70
2019-03-28T02:15:05.253Z,7.70
2019-03-28T02:19:09.294Z,7.70
2019-03-28T02:23:12.835Z,7.70
2019-03-28T02:27:24.072Z,7.70
2019-03-28T02:31:23.110Z,7.60
2019-03-28T02:35:26.696Z,7.60
2019-03-28T02:39:30.283Z,7.60
2019-03-28T02:43:33.978Z,7.60
2019-03-28T02:47:37.545Z,7.60
2019-03-28T02:51:41.131Z,7.60
2019-03-28T02:55:45.069Z,7.60
2019-03-28T02:59:48.664Z,7.60
2019-03-28T03:03:52.248Z,7.60
2019-03-28T03:07:55.835Z,7.60
2019-03-28T03:11:59.421Z,7.60
2019-03-28T03:16:03.059Z,7.50
2019-03-28T03:20:08.069Z,7.60
2019-03-28T03:24:11.662Z,7.50
2019-03-28T03:28:15.272Z,7.50
2019-03-28T03:32:18.899Z,7.60
2019-03-28T03:36:22.477Z,7.60
2019-03-28T03:40:26.101Z,7.50
2019-03-28T03:44:29.693Z,7.50
2019-03-28T03:48:33.275Z,7.50
2019-03-28T03:52:36.942Z,7.50
2019-03-28T03:56:40.560Z,7.50
2019-03-28T04:00:44.136Z,7.50
2019-03-28T04:04:47.989Z,7.50
2019-03-28T04:08:51.649Z,7.50
2019-03-28T04:12:55.235Z,7.60
2019-03-28T04:16:58.859Z,7.60
2019-03-28T04:21:02.444Z,7.60
2019-03-28T04:25:06.097Z,7.50
2019-03-28T04:29:09.736Z,7.50
2019-03-28T04:33:13.336Z,7.50
2019-03-28T04:37:16.909Z,7.50
2019-03-28T04:41:20.501Z,7.50
2019-03-28T04:45:24.084Z,7.50
2019-03-28T04:49:27.673Z,7.50
2019-03-28T04:53:31.252Z,7.40
2019-03-28T04:57:34.832Z,7.40
2019-03-28T05:01:38.417Z,7.40
2019-03-28T05:05:42.083Z,7.40
2019-03-28T05:09:45.656Z,7.40
2019-03-28T05:13:49.247Z,7.40
2019-03-28T05:17:52.848Z,7.40
2019-03-28T05:21:56.617Z,7.40
2019-03-28T05:26:00.219Z,7.40
2019-03-28T05:30:08.515Z,7.40
2019-03-28T05:34:12.072Z,7.40
2019-03-28T05:38:15.672Z,7.40
2019-03-28T05:42:19.258Z,7.40
2019-03-28T05:46:22.855Z,7.30
2019-03-28T05:50:26.446Z,7.30
2019-03-28T05:54:30.058Z,7.20
2019-03-28T05:58:33.721Z,7.20
2019-03-28T06:02:37.289Z,7.20
2019-03-28T06:06:40.969Z,7.20
2019-03-28T06:10:44.547Z,7.20
2019-03-28T06:14:48.136Z,7.20
2019-03-28T06:18:51.748Z,7.20
2019-03-28T06:22:55.331Z,7.30
2019-03-28T06:26:58.932Z,7.40
2019-03-28T06:31:02.512Z,7.50
2019-03-28T06:35:06.436Z,7.50
2019-03-28T06:39:10.084Z,7.60
2019-03-28T06:43:13.696Z,7.60
2019-03-28T06:47:17.292Z,7.70
2019-03-28T06:51:22.554Z,7.80
2019-03-28T06:55:26.097Z,7.80
2019-03-28T06:59:37.339Z,7.90
2019-03-28T07:03:34.928Z,7.90
2019-03-28T07:07:38.507Z,8.10
2019-03-28T07:11:42.116Z,8.30
2019-03-28T07:15:45.687Z,8.30
2019-03-28T07:19:49.378Z,8.40
2019-03-28T07:23:53.321Z,8.50
2019-03-28T07:27:56.989Z,8.50
2019-03-28T07:32:00.572Z,8.40
2019-03-28T07:36:04.168Z,8.40
2019-03-28T07:40:08.097Z,8.30
2019-03-28T07:44:11.681Z,8.30
2019-03-28T07:48:15.332Z,8.20
2019-03-28T07:52:20.232Z,8.30
2019-03-28T07:56:23.911Z,8.30
2019-03-28T08:00:27.495Z,8.30
2019-03-28T08:04:31.078Z,8.30
2019-03-28T08:08:39.011Z,8.30
2019-03-28T08:12:40.170Z,8.50
2019-03-28T08:16:44.169Z,8.60
2019-03-28T08:20:47.730Z,8.60
2019-03-28T08:24:51.316Z,8.60
2019-03-28T08:28:54.896Z,8.60
2019-03-28T08:32:58.485Z,8.60
2019-03-28T08:37:02.736Z,8.70
2019-03-28T08:41:07.260Z,8.70
2019-03-28T08:45:11.077Z,8.70
2019-03-28T08:49:14.669Z,8.80
2019-03-28T08:53:18.252Z,8.80
2019-03-28T08:57:21.852Z,8.80
2019-03-28T09:01:26.354Z,9.00
2019-03-28T09:05:29.961Z,8.90
2019-03-28T09:09:33.556Z,8.90
2019-03-28T09:13:37.144Z,8.90
2019-03-28T09:17:40.729Z,8.90
2019-03-28T09:21:44.316Z,9.10
2019-03-28T09:25:47.925Z,9.10
2019-03-28T09:29:51.577Z,9.20
2019-03-28T09:33:55.173Z,9.30
2019-03-28T09:37:58.762Z,9.40
2019-03-28T09:42:02.414Z,9.40
2019-03-28T09:46:06.087Z,9.50
2019-03-28T09:50:09.821Z,9.50
2019-03-28T09:54:13.412Z,9.80
2019-03-28T09:58:17.003Z,9.90
2019-03-28T10:02:20.587Z,9.80
2019-03-28T10:06:24.214Z,10.00
2019-03-28T10:10:27.795Z,10.00
2019-03-28T10:14:31.390Z,10.00
2019-03-28T10:18:34.979Z,9.80
2019-03-28T10:22:38.562Z,9.90
2019-03-28T10:26:42.164Z,9.90
2019-03-28T10:30:45.885Z,10.00
2019-03-28T10:34:49.471Z,10.00
2019-03-28T10:38:53.137Z,10.00
2019-03-28T10:42:56.789Z,10.00
2019-03-28T10:47:00.384Z,10.00
2019-03-28T10:51:03.973Z,10.20
2019-03-28T10:55:07.705Z,10.30
2019-03-28T10:59:22.638Z,10.30
2019-03-28T11:03:16.536Z,10.50
2019-03-28T11:07:20.195Z,10.60
2019-03-28T11:11:23.789Z,10.60
2019-03-28T11:15:27.447Z,10.50
2019-03-28T11:19:31.040Z,10.50
2019-03-28T11:23:34.623Z,10.40
2019-03-28T11:27:38.223Z,10.50
2019-03-28T11:31:46.853Z,10.50
2019-03-28T11:35:47.036Z,10.40
2019-03-28T11:39:50.627Z,10.50
2019-03-28T11:43:54.484Z,10.50
2019-03-28T11:47:58.067Z,10.60
2019-03-28T11:52:01.657Z,10.60
2019-03-28T11:56:05.240Z,10.60
2019-03-28T12:00:13.000Z,10.60
2019-03-28T12:04:16.599Z,10.70
2019-03-28T12:08:20.182Z,10.70
2019-03-28T12:12:23.771Z,10.70
2019-03-28T12:16:27.366Z,10.60
2019-03-28T12:20:30.948Z,10.50
2019-03-28T12:24:34.541Z,10.60
2019-03-28T12:28:38.274Z,10.60
2019-03-28T12:32:41.924Z,10.60
2019-03-28T12:36:45.590Z,10.60
2019-03-28T12:40:49.187Z,10.70
2019-03-28T12:44:57.305Z,10.80
2019-03-28T12:48:58.239Z,10.90
2019-03-28T12:53:01.784Z,10.90
2019-03-28T12:57:05.497Z,10.90
2019-03-28T13:01:09.092Z,10.90
2019-03-28T13:05:12.817Z,11.00
2019-03-28T13:09:16.473Z,10.90
2019-03-28T13:13:20.061Z,10.90
2019-03-28T13:17:23.643Z,10.90
2019-03-28T13:21:27.235Z,10.90
2019-03-28T13:25:30.820Z,10.80
2019-03-28T13:29:34.627Z,10.90
2019-03-28T13:33:38.185Z,10.90
2019-03-28T13:37:41.769Z,10.90
2019-03-28T13:41:46.014Z,10.80
2019-03-28T13:45:49.967Z,10.90
2019-03-28T13:49:53.761Z,10.90
2019-03-28T13:53:57.377Z,10.90
2019-03-28T13:58:01.208Z,10.90
2019-03-28T14:02:06.901Z,10.90
2019-03-28T14:06:10.108Z,10.90
2019-03-28T14:10:13.797Z,10.90
2019-03-28T14:14:17.408Z,10.90
2019-03-28T14:18:20.992Z,10.90
2019-03-28T14:22:24.608Z,10.90
2019-03-28T14:26:28.196Z,11.00
2019-03-28T14:30:31.780Z,10.90
2019-03-28T14:34:35.397Z,10.90
2019-03-28T14:38:38.974Z,10.90
2019-03-28T14:42:42.564Z,10.90
2019-03-28T14:46:46.144Z,10.90
2019-03-28T14:50:49.873Z,10.90
2019-03-28T14:54:53.513Z,11.00
2019-03-28T14:58:58.586Z,11.00
2019-03-28T15:03:02.332Z,10.90
2019-03-28T15:07:07.441Z,10.90
2019-03-28T15:11:11.204Z,10.90
2019-03-28T15:15:15.066Z,10.90
2019-03-28T15:19:18.644Z,10.80
2019-03-28T15:23:22.255Z,10.80
2019-03-28T15:27:25.840Z,10.80
2019-03-28T15:31:29.425Z,10.80
2019-03-28T15:35:33.021Z,10.90
2019-03-28T15:39:36.612Z,10.90
2019-03-28T15:43:40.205Z,11.00
2019-03-28T15:47:43.897Z,11.00
2019-03-28T15:51:47.473Z,11.00
2019-03-28T15:55:51.076Z,10.90
2019-03-28T15:59:54.755Z,11.00
2019-03-28T16:03:58.344Z,10.90
2019-03-28T16:08:01.928Z,11.00
2019-03-28T16:12:05.507Z,11.00
2019-03-28T16:16:09.096Z,11.10
2019-03-28T16:20:13.242Z,11.00
2019-03-28T16:24:16.822Z,11.10
2019-03-28T16:28:20.472Z,11.10
2019-03-28T16:32:24.064Z,11.10
2019-03-28T16:36:27.650Z,11.00
2019-03-28T16:40:31.289Z,11.00
2019-03-28T16:44:34.809Z,10.90
2019-03-28T16:48:38.397Z,10.80
2019-03-28T16:52:41.971Z,10.80
2019-03-28T16:56:45.708Z,10.70
2019-03-28T17:00:49.291Z,10.70
2019-03-28T17:04:52.872Z,10.70
2019-03-28T17:08:57.396Z,10.60
2019-03-28T17:13:00.980Z,10.50
2019-03-28T17:17:04.656Z,10.50
2019-03-28T17:21:08.318Z,10.50
2019-03-28T17:25:11.975Z,10.50
2019-03-28T17:29:15.548Z,10.40
2019-03-28T17:33:19.278Z,10.40
2019-03-28T17:37:22.863Z,10.40
2019-03-28T17:41:26.448Z,10.40
2019-03-28T17:45:30.102Z,10.40
2019-03-28T17:49:33.699Z,10.40
2019-03-28T17:53:37.273Z,10.40
2019-03-28T17:57:40.875Z,10.30
2019-03-28T18:01:44.472Z,10.30
2019-03-28T18:05:57.850Z,10.30
2019-03-28T18:09:53.288Z,10.30
2019-03-28T18:13:57.467Z,10.30
2019-03-28T18:18:01.279Z,10.20
2019-03-28T18:22:07.847Z,10.20
2019-03-28T18:26:11.431Z,10.20
2019-03-28T18:30:16.113Z,10.20
2019-03-28T18:34:20.102Z,10.10
2019-03-28T18:38:23.735Z,10.10
2019-03-28T18:42:27.807Z,10.10
2019-03-28T18:46:31.352Z,10.10
2019-03-28T18:50:34.949Z,10.10
2019-03-28T18:54:38.673Z,10.10
2019-03-28T18:58:42.263Z,10.10
2019-03-28T19:02:46.385Z,10.10
2019-03-28T19:06:50.163Z,10.10
2019-03-28T19:10:54.067Z,10.10
2019-03-28T19:14:57.974Z,10.10
2019-03-28T19:19:02.092Z,10.10
2019-03-28T19:23:07.419Z,10.10
2019-03-28T19:27:10.456Z,10.10
2019-03-28T19:31:14.551Z,10.10
2019-03-28T19:35:18.589Z,10.10
2019-03-28T19:39:34.197Z,10.00
2019-03-28T19:43:38.874Z,10.00
2019-03-28T19:47:43.068Z,10.00
2019-03-28T19:51:47.744Z,10.00
2019-03-28T19:55:51.656Z,10.00
2019-03-28T19:59:58.452Z,10.00
2019-03-28T20:04:00.675Z,9.90
2019-03-28T20:08:14.921Z,9.90
2019-03-28T20:12:09.795Z,9.90
2019-03-28T20:16:13.647Z,9.90
2019-03-28T20:20:17.558Z,9.90
2019-03-28T20:24:24.233Z,9.90
2019-03-28T20:28:28.021Z,9.80
2019-03-28T20:32:31.924Z,9.90
2019-03-28T20:36:38.437Z,9.90
2019-03-28T20:40:43.394Z,9.90
2019-03-28T20:44:46.889Z,9.90
2019-03-28T20:48:50.759Z,9.80
2019-03-28T20:52:54.588Z,9.80
2019-03-28T20:56:58.254Z,9.70
2019-03-28T21:01:02.158Z,9.80
2019-03-28T21:05:07.578Z,9.80
2019-03-28T21:09:11.185Z,9.70
2019-03-28T21:13:14.764Z,9.80
2019-03-28T21:17:18.361Z,9.70
2019-03-28T21:21:22.829Z,9.80
2019-03-28T21:25:29.401Z,9.80
2019-03-28T21:29:33.948Z,9.80
2019-03-28T21:33:39.408Z,9.80
2019-03-28T21:37:46.410Z,9.80
2019-03-28T21:41:50.032Z,9.80
2019-03-28T21:45:53.641Z,9.80
2019-03-28T21:49:57.332Z,9.80
2019-03-28T21:54:00.914Z,9.80
2019-03-28T21:58:05.014Z,9.80
2019-03-28T22:02:08.857Z,9.80
2019-03-28T22:06:12.464Z,9.80
2019-03-28T22:10:17.054Z,9.80
2019-03-28T22:14:26.116Z,9.80
2019-03-28T22:18:29.764Z,9.80
2019-03-28T22:22:33.350Z,9.80
2019-03-28T22:26:36.952Z,9.80
2019-03-28T22:30:40.560Z,9.80
2019-03-28T22:34:44.153Z,9.70
2019-03-28T22:38:47.756Z,9.70
2019-03-28T22:42:51.321Z,9.60
2019-03-28T22:46:54.928Z,9.60
2019-03-28T22:50:58.535Z,9.60
2019-03-28T22:55:02.152Z,9.60
2019-03-28T22:59:05.734Z,9.60
2019-03-28T23:03:09.383Z,9.60
2019-03-28T23:07:12.992Z,9.60
2019-03-28T23:11:16.601Z,9.60
2019-03-28T23:15:21.968Z,9.60
2019-03-28T23:19:25.436Z,9.60
2019-03-28T23:23:29.024Z,9.60
2019-03-28T23:27:33.026Z,9.60
2019-03-28T23:31:36.637Z,9.60
2019-03-28T23:35:40.272Z,9.50
2019-03-28T23:39:44.630Z,9.50
2019-03-28T23:43:48.210Z,9.50
2019-03-28T23:47:51.801Z,9.40
2019-03-28T23:51:55.409Z,9.40
2019-03-28T23:55:59.167Z,9.40
